»·PEaware :: DCM2499 KIZA-KSAN

DCM2499 :: KIZA-KSAN

FLIGHT INFORMATION

Flight Status: Arrived
Operator:
DotCom
More flights by this operator :: More flights under this callsign
Pilot: Alec D. (17934)
Aircraft: BEECH AIRCRAFT SUPER KING AIR COMMUTER
(BE20)
More flights by this aircraft type
Origin: KIZA Santa Ynez
United States
Destination: KSAN San Diego Intl-Lindbergh
United States
More flights between these airports :: More routes between these airports
Route: +RZS VTU V208 SXC V208 LAX118 CARDI MZB320 MZB
File this flight plan on PilotEdge
Remarks:
Altitude:
(Current/Filed)
19,000ft
Speed:
(Current/Filed)
285kts
Departed: 03-Jul-19 06:04 PM
Arrived: 03-Jul-19 07:01 PM
Distance/Time
Traveled:
183nm/0:57
Distance/Time
To Go:
Arrived

Flight Plot

Page will automatically refresh every two minutes.

Flight plan parsing failed; only flown route is shown


Map Options




Map Legend


Flown Route
Filed Route
Departure Airport
Arrival Airport
Navaid (VOR, NDB)
Fix

Horizontal Profiles

Position Reports

Time Latitude Longitude Heading Altitude Ground
Speed
03-Jul-19 17:47 34.607914 -120.072163 6 675ft 0kts
03-Jul-19 17:48 34.607914 -120.072163 6 675ft 0kts
03-Jul-19 17:49 34.607914 -120.072163 6 675ft 0kts
03-Jul-19 17:50 34.607914 -120.072163 6 675ft 0kts
03-Jul-19 17:51 34.607914 -120.072163 6 675ft 0kts
03-Jul-19 17:51 34.607914 -120.072163 6 675ft 0kts
03-Jul-19 17:53 34.607917 -120.072163 6 675ft 0kts
03-Jul-19 17:53 34.607922 -120.072162 6 675ft 0kts
03-Jul-19 17:54 34.607925 -120.072162 6 675ft 0kts
03-Jul-19 17:56 34.607929 -120.072162 6 675ft 0kts
03-Jul-19 17:56 34.607931 -120.072161 6 675ft 0kts
03-Jul-19 17:57 34.607934 -120.072161 6 675ft 0kts
03-Jul-19 17:59 34.607937 -120.072160 6 675ft 0kts
03-Jul-19 17:59 34.607939 -120.072160 6 675ft 0kts
03-Jul-19 18:00 34.607897 -120.072376 179 675ft 7kts
03-Jul-19 18:01 34.606715 -120.071060 174 675ft 0kts
03-Jul-19 18:02 34.606434 -120.071041 178 675ft 7kts
03-Jul-19 18:03 34.606687 -120.074418 276 675ft 65kts
03-Jul-19 18:04 34.604129 -120.115332 228 2138ft 165kts
03-Jul-19 18:05 34.565302 -120.093156 85 4037ft 203kts
03-Jul-19 18:06 34.569599 -120.024415 93 5929ft 212kts
03-Jul-19 18:07 34.553229 -119.954443 103 7710ft 220kts
03-Jul-19 18:08 34.536218 -119.881440 105 9325ft 226kts
03-Jul-19 18:09 34.518609 -119.807719 106 11027ft 229kts
03-Jul-19 18:10 34.491865 -119.737629 124 12613ft 233kts
03-Jul-19 18:11 34.455228 -119.670727 131 14169ft 238kts
03-Jul-19 18:12 34.407892 -119.612913 140 15505ft 242kts
03-Jul-19 18:13 34.356943 -119.553427 140 16012ft 271kts
03-Jul-19 18:14 34.300698 -119.487769 139 16015ft 288kts
03-Jul-19 18:15 34.242642 -119.419876 139 16020ft 292kts
03-Jul-19 18:16 34.184285 -119.351673 140 16250ft 285kts
03-Jul-19 18:17 34.127946 -119.285809 140 16966ft 284kts
03-Jul-19 18:18 34.069731 -119.218197 140 16967ft 294kts
03-Jul-19 18:19 34.010431 -119.149373 140 16969ft 296kts
03-Jul-19 18:20 33.950976 -119.080459 140 16966ft 297kts
03-Jul-19 18:21 33.891438 -119.011612 140 16970ft 296kts
03-Jul-19 18:22 33.831914 -118.942885 140 16969ft 296kts
03-Jul-19 18:23 33.772390 -118.874333 140 16972ft 296kts
03-Jul-19 18:24 33.712859 -118.805862 140 16978ft 296kts
03-Jul-19 18:25 33.653297 -118.737504 140 16980ft 296kts
03-Jul-19 18:26 33.593661 -118.669208 140 16983ft 296kts
03-Jul-19 18:27 33.534065 -118.601117 141 16988ft 296kts
03-Jul-19 18:28 33.474473 -118.533161 140 16996ft 295kts
03-Jul-19 18:29 33.414884 -118.465306 140 17000ft 295kts
03-Jul-19 18:30 33.363196 -118.390046 113 17007ft 304kts
03-Jul-19 18:31 33.341360 -118.291412 105 17000ft 306kts
03-Jul-19 18:32 33.320527 -118.192941 107 16997ft 305kts
03-Jul-19 18:33 33.298110 -118.094967 108 16995ft 305kts
03-Jul-19 18:34 33.275119 -117.997434 108 16991ft 305kts
03-Jul-19 18:35 33.251870 -117.899848 108 16987ft 305kts
03-Jul-19 18:36 33.228538 -117.802450 108 16982ft 304kts
03-Jul-19 18:37 33.204831 -117.704028 108 16452ft 315kts
03-Jul-19 18:38 33.180225 -117.602465 108 15455ft 319kts
03-Jul-19 18:39 33.156020 -117.502492 108 14998ft 306kts
03-Jul-19 18:40 33.116105 -117.417939 146 14300ft 296kts
03-Jul-19 18:41 33.043324 -117.369938 157 12312ft 299kts
03-Jul-19 18:42 32.969537 -117.329173 157 10317ft 287kts
03-Jul-19 18:43 32.897518 -117.289480 156 8400ft 280kts
03-Jul-19 18:44 32.830346 -117.246372 130 7099ft 268kts
03-Jul-19 18:45 32.807817 -117.165882 102 7019ft 253kts
03-Jul-19 18:46 32.793123 -117.084996 102 6366ft 246kts
03-Jul-19 18:47 32.779014 -117.006018 102 5072ft 237kts
03-Jul-19 18:48 32.765333 -116.928437 102 4988ft 235kts
03-Jul-19 18:49 32.752174 -116.852571 102 4989ft 236kts
03-Jul-19 18:50 32.738907 -116.775087 102 4988ft 239kts
03-Jul-19 18:51 32.695146 -116.731931 195 4993ft 227kts
03-Jul-19 18:52 32.667161 -116.792037 261 4995ft 218kts
03-Jul-19 18:53 32.659268 -116.863982 267 4987ft 220kts
03-Jul-19 18:54 32.669366 -116.935093 287 4883ft 221kts
03-Jul-19 18:55 32.689061 -117.002164 285 3814ft 209kts
03-Jul-19 18:56 32.703705 -117.067832 285 2816ft 174kts
03-Jul-19 18:57 32.715248 -117.113458 285 1707ft 135kts
03-Jul-19 18:58 32.723646 -117.149045 286 696ft 104kts
03-Jul-19 18:59 32.731331 -117.180492 282 39ft 90kts
03-Jul-19 19:00 32.734516 -117.190811 32 19ft 0kts
03-Jul-19 19:01 32.734718 -117.190643 41 19ft 5kts
03-Jul-19 19:02 32.733300 -117.183904 104 19ft 26kts
03-Jul-19 19:03 32.732787 -117.178609 130 19ft 0kts
03-Jul-19 19:04 32.732785 -117.178607 130 19ft 0kts
03-Jul-19 19:05 32.732785 -117.178607 130 19ft 0kts
03-Jul-19 19:06 32.732785 -117.178607 130 19ft 0kts
03-Jul-19 19:07 32.732785 -117.178607 130 19ft 0kts
03-Jul-19 19:08 32.732785 -117.178607 130 19ft 0kts

Navigation Log

Ident Type
Flight plan parsing failed, navigation log unavailable